Aviation Digital Data Service (ADDS)

Output produced by METARs form (1231 UTC 19 January 2019)
found at http://www.aviationweather.gov/metar/data/
 
METAR text: RJTE 190029Z 03010KT 350V060 9999 FEW020 09/M05 Q1021 RMK 1CU020 A3017
Conditions at: RJTE (TATEYAMA (JMSDF), JP) observed 0029 UTC 19 January 2019
Temperature: 9.0°C (48°F)
Dewpoint: -5.0°C (23°F) [RH = 37%]
Pressure (altimeter): 30.15 inches Hg (1021.0 mb)
Winds: from the NNE (30 degrees) at 12 MPH (10 knots; 5.1 m/s)
Visibility: 6 or more miles (10+ km)
Ceiling: at least 12,000 feet AGL
Clouds: few clouds at 2000 feet AGL
Weather: no significant weather observed at this time